Terminal Aerodrome Forecast
Issued by NWS Charleston, WV

Home | Current Version | Previous Version | Text Only | Print | Product List | Glossary On
Versions: 1 2 3 4 5 6 7 8 9 10 11 12 13 14 15 16 17 18 19 20 21 22 23 24 25
000
FTUS41 KRLX 310500
TAFPKB
TAF
KPKB 310540Z 3106/0106 00000KT P6SM BKN045
     FM311800 VRB03KT 5SM -SHRA BR OVC040
     FM312100 VRB03KT 2SM -SHRA BR OVC030
     FM312200 00000KT 3SM -SHRA BR OVC030
     FM010500 VRB03KT 4SM -RA BR OVC010=

USA.gov is the U.S. government's official web portal to all federal, state and local government web resources and services.